< Typhoon 197311 1973 Season Typhoon 197313 >
Typhoon 197312 (KATE)
General InformationTrack Information on Google Maps || Disaster Info.ResourceGoogle EarthGE AnimationAtom FeedGeoJSON
Detalied Best Track (Time Zone = UTC)
Year Month Day Hour Lat. Long. Pressure (hPa) Wind (kt) Class Image Chart
1973 8 20 06 17.0 124.0 996 0 2 -- Chart
1973 8 20 12 17.3 123.9 1000 0 2 -- Chart
1973 8 20 18 17.7 123.8 1000 0 2 -- Chart
1973 8 21 00 18.0 123.7 1000 0 2 -- Chart
1973 8 21 06 18.6 123.4 1000 0 2 -- Chart
1973 8 21 12 19.2 123.0 1000 0 2 -- Chart
1973 8 21 18 20.0 122.2 1000 0 2 -- Chart
1973 8 22 00 20.6 121.3 998 0 2 -- Chart
1973 8 22 06 20.4 119.5 996 0 2 -- Chart
1973 8 22 12 20.0 117.6 996 0 2 -- Chart
1973 8 22 18 19.8 116.0 998 0 2 -- Chart
1973 8 23 00 19.5 115.0 998 0 2 -- Chart
1973 8 23 06 19.1 114.1 998 0 2 -- Chart
1973 8 23 12 18.8 113.4 996 0 2 -- Chart
1973 8 23 18 18.6 112.7 996 0 2 -- Chart
1973 8 24 00 18.5 112.0 996 0 2 -- Chart
1973 8 24 06 18.5 111.5 990 0 9 -- Chart
1973 8 24 12 19.1 111.2 980 0 9 -- Chart
1973 8 24 18 19.7 110.7 975 0 9 -- Chart
1973 8 25 00 19.9 109.9 975 0 9 -- Chart
1973 8 25 06 20.3 109.0 975 0 9 -- Chart
1973 8 25 12 20.5 108.2 980 0 9 -- Chart
1973 8 25 18 20.8 107.1 980 0 9 -- Chart
1973 8 26 00 21.0 106.0 992 0 9 -- Chart
1973 8 26 06 21.0 104.9 994 0 2 -- Chart
1973 8 26 12 21.5 103.3 998 0 2 -- Chart
Japan Meteorological Agency Best Track Data | Correction Date : 1989-06-01
< Typhoon 197311 1973 Season Typhoon 197313 >

Help